sensor_id;sensor_type;location;lat;lon;timestamp;temperature;humidity
48162;DHT22;33950;48.154;16.316;2023-06-04T00:00:12;20.10;65.80
48162;DHT22;33950;48.154;16.316;2023-06-04T00:02:58;20.10;65.70
48162;DHT22;33950;48.154;16.316;2023-06-04T00:05:46;20.00;65.60
48162;DHT22;33950;48.154;16.316;2023-06-04T00:08:32;20.00;65.50
48162;DHT22;33950;48.154;16.316;2023-06-04T00:11:18;19.90;65.20
48162;DHT22;33950;48.154;16.316;2023-06-04T00:14:07;19.70;66.20
48162;DHT22;33950;48.154;16.316;2023-06-04T00:16:53;19.30;67.20
48162;DHT22;33950;48.154;16.316;2023-06-04T00:19:40;19.10;66.90
48162;DHT22;33950;48.154;16.316;2023-06-04T00:22:28;19.10;66.90
48162;DHT22;33950;48.154;16.316;2023-06-04T00:25:14;19.30;66.90
48162;DHT22;33950;48.154;16.316;2023-06-04T00:28:05;19.50;66.90
48162;DHT22;33950;48.154;16.316;2023-06-04T00:30:51;19.60;66.90
48162;DHT22;33950;48.154;16.316;2023-06-04T00:33:40;19.40;66.70
48162;DHT22;33950;48.154;16.316;2023-06-04T00:36:26;19.10;67.30
48162;DHT22;33950;48.154;16.316;2023-06-04T00:39:13;19.10;67.60
48162;DHT22;33950;48.154;16.316;2023-06-04T00:42:00;19.20;67.30
48162;DHT22;33950;48.154;16.316;2023-06-04T00:44:46;19.40;67.00
48162;DHT22;33950;48.154;16.316;2023-06-04T00:47:33;19.60;66.90
48162;DHT22;33950;48.154;16.316;2023-06-04T00:50:19;19.70;66.50
48162;DHT22;33950;48.154;16.316;2023-06-04T00:53:06;19.70;66.40
48162;DHT22;33950;48.154;16.316;2023-06-04T00:55:54;19.60;66.20
48162;DHT22;33950;48.154;16.316;2023-06-04T00:58:40;19.50;66.40
48162;DHT22;33950;48.154;16.316;2023-06-04T01:01:31;19.30;67.00
48162;DHT22;33950;48.154;16.316;2023-06-04T01:04:24;19.10;67.40
48162;DHT22;33950;48.154;16.316;2023-06-04T01:07:14;19.20;68.00
48162;DHT22;33950;48.154;16.316;2023-06-04T01:10:01;19.20;67.80
48162;DHT22;33950;48.154;16.316;2023-06-04T01:12:49;19.20;67.10
48162;DHT22;33950;48.154;16.316;2023-06-04T01:15:35;19.10;67.50
48162;DHT22;33950;48.154;16.316;2023-06-04T01:18:25;19.10;68.20
48162;DHT22;33950;48.154;16.316;2023-06-04T01:21:15;19.10;68.00
48162;DHT22;33950;48.154;16.316;2023-06-04T01:24:05;19.20;67.80
48162;DHT22;33950;48.154;16.316;2023-06-04T01:26:54;19.20;67.80
48162;DHT22;33950;48.154;16.316;2023-06-04T01:29:43;19.20;67.70
48162;DHT22;33950;48.154;16.316;2023-06-04T01:32:30;19.30;67.80
48162;DHT22;33950;48.154;16.316;2023-06-04T01:35:17;19.20;67.80
48162;DHT22;33950;48.154;16.316;2023-06-04T01:38:03;19.20;68.00
48162;DHT22;33950;48.154;16.316;2023-06-04T01:40:49;19.10;68.20
48162;DHT22;33950;48.154;16.316;2023-06-04T01:43:36;19.10;68.90
48162;DHT22;33950;48.154;16.316;2023-06-04T01:46:24;19.00;68.50
48162;DHT22;33950;48.154;16.316;2023-06-04T01:49:10;18.90;68.80
48162;DHT22;33950;48.154;16.316;2023-06-04T01:51:56;18.80;69.50
48162;DHT22;33950;48.154;16.316;2023-06-04T01:54:42;18.70;69.30
48162;DHT22;33950;48.154;16.316;2023-06-04T01:57:28;18.60;69.60
48162;DHT22;33950;48.154;16.316;2023-06-04T02:00:14;18.50;69.40
48162;DHT22;33950;48.154;16.316;2023-06-04T02:03:02;18.60;69.50
48162;DHT22;33950;48.154;16.316;2023-06-04T02:05:48;18.60;69.00
48162;DHT22;33950;48.154;16.316;2023-06-04T02:08:35;18.70;70.30
48162;DHT22;33950;48.154;16.316;2023-06-04T02:11:21;18.70;71.30
48162;DHT22;33950;48.154;16.316;2023-06-04T02:14:07;18.70;70.10
48162;DHT22;33950;48.154;16.316;2023-06-04T02:16:53;18.30;71.10
48162;DHT22;33950;48.154;16.316;2023-06-04T02:19:45;17.80;72.00
48162;DHT22;33950;48.154;16.316;2023-06-04T02:22:35;17.80;72.30
48162;DHT22;33950;48.154;16.316;2023-06-04T02:25:21;18.00;72.30
48162;DHT22;33950;48.154;16.316;2023-06-04T02:28:08;18.10;71.00
48162;DHT22;33950;48.154;16.316;2023-06-04T02:30:54;18.20;71.00
48162;DHT22;33950;48.154;16.316;2023-06-04T02:33:40;18.50;70.60
48162;DHT22;33950;48.154;16.316;2023-06-04T02:36:28;18.70;70.10
48162;DHT22;33950;48.154;16.316;2023-06-04T02:39:15;18.90;69.80
48162;DHT22;33950;48.154;16.316;2023-06-04T02:42:01;18.70;69.70
48162;DHT22;33950;48.154;16.316;2023-06-04T02:44:47;18.80;69.80
48162;DHT22;33950;48.154;16.316;2023-06-04T02:47:33;19.10;69.60
48162;DHT22;33950;48.154;16.316;2023-06-04T02:53:07;19.10;69.80
48162;DHT22;33950;48.154;16.316;2023-06-04T02:58:49;18.60;69.50
48162;DHT22;33950;48.154;16.316;2023-06-04T03:01:35;18.80;70.10
48162;DHT22;33950;48.154;16.316;2023-06-04T03:04:21;18.80;70.20
48162;DHT22;33950;48.154;16.316;2023-06-04T03:07:08;19.00;70.00
48162;DHT22;33950;48.154;16.316;2023-06-04T03:09:58;18.80;70.90
48162;DHT22;33950;48.154;16.316;2023-06-04T03:12:44;18.80;69.80
48162;DHT22;33950;48.154;16.316;2023-06-04T03:15:30;18.90;70.10
48162;DHT22;33950;48.154;16.316;2023-06-04T03:18:16;18.90;70.00
48162;DHT22;33950;48.154;16.316;2023-06-04T03:21:03;18.80;70.00
48162;DHT22;33950;48.154;16.316;2023-06-04T03:23:49;18.50;69.20
48162;DHT22;33950;48.154;16.316;2023-06-04T03:26:36;19.20;70.00
48162;DHT22;33950;48.154;16.316;2023-06-04T03:29:22;18.80;70.20
48162;DHT22;33950;48.154;16.316;2023-06-04T03:32:08;18.80;69.90
48162;DHT22;33950;48.154;16.316;2023-06-04T03:34:54;18.50;69.70
48162;DHT22;33950;48.154;16.316;2023-06-04T03:37:41;18.80;69.70
48162;DHT22;33950;48.154;16.316;2023-06-04T03:40:27;18.90;69.40
48162;DHT22;33950;48.154;16.316;2023-06-04T03:43:14;18.80;69.70
48162;DHT22;33950;48.154;16.316;2023-06-04T03:46:00;18.90;69.40
48162;DHT22;33950;48.154;16.316;2023-06-04T03:48:46;18.80;69.80
48162;DHT22;33950;48.154;16.316;2023-06-04T03:51:32;18.80;69.80
48162;DHT22;33950;48.154;16.316;2023-06-04T03:54:18;18.50;70.20
48162;DHT22;33950;48.154;16.316;2023-06-04T03:57:05;18.50;70.50
48162;DHT22;33950;48.154;16.316;2023-06-04T03:59:52;18.70;70.70
48162;DHT22;33950;48.154;16.316;2023-06-04T04:02:38;18.60;70.50
48162;DHT22;33950;48.154;16.316;2023-06-04T04:05:24;18.80;70.80
48162;DHT22;33950;48.154;16.316;2023-06-04T04:10:57;18.10;71.60
48162;DHT22;33950;48.154;16.316;2023-06-04T04:13:45;18.60;71.90
48162;DHT22;33950;48.154;16.316;2023-06-04T04:16:33;18.70;71.70
48162;DHT22;33950;48.154;16.316;2023-06-04T04:19:19;18.80;71.70
48162;DHT22;33950;48.154;16.316;2023-06-04T04:22:06;18.70;71.30
48162;DHT22;33950;48.154;16.316;2023-06-04T04:24:52;19.00;71.20
48162;DHT22;33950;48.154;16.316;2023-06-04T04:27:38;18.90;70.90
48162;DHT22;33950;48.154;16.316;2023-06-04T04:33:15;18.30;70.40
48162;DHT22;33950;48.154;16.316;2023-06-04T04:38:49;19.00;70.70
48162;DHT22;33950;48.154;16.316;2023-06-04T04:41:39;19.50;71.20
48162;DHT22;33950;48.154;16.316;2023-06-04T04:47:12;19.00;71.10
48162;DHT22;33950;48.154;16.316;2023-06-04T04:50:00;19.40;71.50
48162;DHT22;33950;48.154;16.316;2023-06-04T04:52:46;19.20;71.70
48162;DHT22;33950;48.154;16.316;2023-06-04T04:55:32;19.00;71.50
48162;DHT22;33950;48.154;16.316;2023-06-04T04:58:18;19.10;71.60
48162;DHT22;33950;48.154;16.316;2023-06-04T05:01:06;18.90;71.50
48162;DHT22;33950;48.154;16.316;2023-06-04T05:03:52;19.00;71.90
48162;DHT22;33950;48.154;16.316;2023-06-04T05:06:40;18.60;72.30
48162;DHT22;33950;48.154;16.316;2023-06-04T05:09:26;19.00;72.80
48162;DHT22;33950;48.154;16.316;2023-06-04T05:12:12;19.20;73.80
48162;DHT22;33950;48.154;16.316;2023-06-04T05:14:58;18.90;74.70
48162;DHT22;33950;48.154;16.316;2023-06-04T05:20:32;19.00;72.90
48162;DHT22;33950;48.154;16.316;2023-06-04T05:23:20;19.10;73.00
48162;DHT22;33950;48.154;16.316;2023-06-04T05:26:06;19.00;73.10
48162;DHT22;33950;48.154;16.316;2023-06-04T05:28:52;19.20;71.90
48162;DHT22;33950;48.154;16.316;2023-06-04T05:31:38;19.00;71.90
48162;DHT22;33950;48.154;16.316;2023-06-04T05:34:25;19.30;72.10
48162;DHT22;33950;48.154;16.316;2023-06-04T05:37:12;18.60;71.90
48162;DHT22;33950;48.154;16.316;2023-06-04T05:40:00;19.00;73.50
48162;DHT22;33950;48.154;16.316;2023-06-04T05:42:46;19.00;73.60
48162;DHT22;33950;48.154;16.316;2023-06-04T05:45:32;19.00;73.40
48162;DHT22;33950;48.154;16.316;2023-06-04T05:48:19;18.60;73.50
48162;DHT22;33950;48.154;16.316;2023-06-04T05:51:05;19.20;73.60
48162;DHT22;33950;48.154;16.316;2023-06-04T05:53:51;19.20;73.70
48162;DHT22;33950;48.154;16.316;2023-06-04T05:56:39;19.20;73.50
48162;DHT22;33950;48.154;16.316;2023-06-04T06:02:11;19.50;73.70
48162;DHT22;33950;48.154;16.316;2023-06-04T06:04:58;19.30;73.30
48162;DHT22;33950;48.154;16.316;2023-06-04T06:10:30;19.90;75.90
48162;DHT22;33950;48.154;16.316;2023-06-04T06:13:18;19.30;72.50
48162;DHT22;33950;48.154;16.316;2023-06-04T06:16:04;19.80;72.90
48162;DHT22;33950;48.154;16.316;2023-06-04T06:18:50;19.50;72.60
48162;DHT22;33950;48.154;16.316;2023-06-04T06:21:37;19.40;73.20
48162;DHT22;33950;48.154;16.316;2023-06-04T06:27:10;19.10;72.70
48162;DHT22;33950;48.154;16.316;2023-06-04T06:29:57;19.70;73.20
48162;DHT22;33950;48.154;16.316;2023-06-04T06:32:43;19.40;73.10
48162;DHT22;33950;48.154;16.316;2023-06-04T06:35:29;19.50;73.10
48162;DHT22;33950;48.154;16.316;2023-06-04T06:38:15;18.70;74.30
48162;DHT22;33950;48.154;16.316;2023-06-04T06:41:01;19.30;76.00
48162;DHT22;33950;48.154;16.316;2023-06-04T06:43:47;19.60;74.80
48162;DHT22;33950;48.154;16.316;2023-06-04T06:46:35;19.50;72.50
48162;DHT22;33950;48.154;16.316;2023-06-04T06:52:08;19.50;72.70
48162;DHT22;33950;48.154;16.316;2023-06-04T06:54:54;19.60;73.00
48162;DHT22;33950;48.154;16.316;2023-06-04T06:57:40;19.50;73.10
48162;DHT22;33950;48.154;16.316;2023-06-04T07:00:26;19.60;73.00
48162;DHT22;33950;48.154;16.316;2023-06-04T07:03:14;19.70;72.90
48162;DHT22;33950;48.154;16.316;2023-06-04T07:06:01;19.60;73.00
48162;DHT22;33950;48.154;16.316;2023-06-04T07:08:47;19.70;73.00
48162;DHT22;33950;48.154;16.316;2023-06-04T07:11:34;19.70;73.10
48162;DHT22;33950;48.154;16.316;2023-06-04T07:14:20;19.80;73.20
48162;DHT22;33950;48.154;16.316;2023-06-04T07:17:06;19.80;73.00
48162;DHT22;33950;48.154;16.316;2023-06-04T07:19:54;19.80;73.00
48162;DHT22;33950;48.154;16.316;2023-06-04T07:22:41;19.80;73.30
48162;DHT22;33950;48.154;16.316;2023-06-04T07:25:27;19.80;73.10
48162;DHT22;33950;48.154;16.316;2023-06-04T07:28:13;19.90;73.10
48162;DHT22;33950;48.154;16.316;2023-06-04T07:31:00;19.90;72.80
48162;DHT22;33950;48.154;16.316;2023-06-04T07:33:46;20.00;72.80
48162;DHT22;33950;48.154;16.316;2023-06-04T07:36:33;20.00;73.20
48162;DHT22;33950;48.154;16.316;2023-06-04T07:39:19;20.00;72.90
48162;DHT22;33950;48.154;16.316;2023-06-04T07:42:06;20.00;73.00
48162;DHT22;33950;48.154;16.316;2023-06-04T07:44:55;20.10;72.90
48162;DHT22;33950;48.154;16.316;2023-06-04T07:47:41;20.30;73.20
48162;DHT22;33950;48.154;16.316;2023-06-04T07:50:28;20.30;72.70
48162;DHT22;33950;48.154;16.316;2023-06-04T07:53:15;20.40;73.10
48162;DHT22;33950;48.154;16.316;2023-06-04T07:56:01;20.40;73.70
48162;DHT22;33950;48.154;16.316;2023-06-04T07:58:47;20.40;73.50
48162;DHT22;33950;48.154;16.316;2023-06-04T08:01:33;20.30;74.20
48162;DHT22;33950;48.154;16.316;2023-06-04T08:04:20;20.30;73.80
48162;DHT22;33950;48.154;16.316;2023-06-04T08:07:06;20.20;74.20
48162;DHT22;33950;48.154;16.316;2023-06-04T08:09:53;20.30;74.30
48162;DHT22;33950;48.154;16.316;2023-06-04T08:12:41;20.40;73.50
48162;DHT22;33950;48.154;16.316;2023-06-04T08:15:27;20.50;73.80
48162;DHT22;33950;48.154;16.316;2023-06-04T08:18:14;20.50;73.80
48162;DHT22;33950;48.154;16.316;2023-06-04T08:21:00;20.50;73.30
48162;DHT22;33950;48.154;16.316;2023-06-04T08:23:47;20.40;73.10
48162;DHT22;33950;48.154;16.316;2023-06-04T08:26:34;20.50;73.80
48162;DHT22;33950;48.154;16.316;2023-06-04T08:29:20;20.30;74.00
48162;DHT22;33950;48.154;16.316;2023-06-04T08:32:06;20.40;73.60
48162;DHT22;33950;48.154;16.316;2023-06-04T08:34:54;20.30;73.70
48162;DHT22;33950;48.154;16.316;2023-06-04T08:37:40;20.40;73.80
48162;DHT22;33950;48.154;16.316;2023-06-04T08:40:26;20.40;73.90
48162;DHT22;33950;48.154;16.316;2023-06-04T08:43:14;20.50;74.30
48162;DHT22;33950;48.154;16.316;2023-06-04T08:46:03;20.60;74.70
48162;DHT22;33950;48.154;16.316;2023-06-04T08:48:54;20.80;74.60
48162;DHT22;33950;48.154;16.316;2023-06-04T08:51:42;20.80;74.40
48162;DHT22;33950;48.154;16.316;2023-06-04T08:54:29;20.80;74.40
48162;DHT22;33950;48.154;16.316;2023-06-04T08:57:17;20.70;74.10
48162;DHT22;33950;48.154;16.316;2023-06-04T09:00:06;20.80;75.10
48162;DHT22;33950;48.154;16.316;2023-06-04T09:02:53;20.90;75.20
48162;DHT22;33950;48.154;16.316;2023-06-04T09:05:39;20.90;75.30
48162;DHT22;33950;48.154;16.316;2023-06-04T09:08:31;21.00;75.20
48162;DHT22;33950;48.154;16.316;2023-06-04T09:11:19;20.90;74.80
48162;DHT22;33950;48.154;16.316;2023-06-04T09:14:08;21.00;74.70
48162;DHT22;33950;48.154;16.316;2023-06-04T09:16:56;21.20;75.40
48162;DHT22;33950;48.154;16.316;2023-06-04T09:19:44;21.40;74.80
48162;DHT22;33950;48.154;16.316;2023-06-04T09:22:34;21.40;75.20
48162;DHT22;33950;48.154;16.316;2023-06-04T09:25:22;21.50;75.40
48162;DHT22;33950;48.154;16.316;2023-06-04T09:28:09;21.70;75.60
48162;DHT22;33950;48.154;16.316;2023-06-04T09:30:55;21.80;74.90
48162;DHT22;33950;48.154;16.316;2023-06-04T09:33:47;21.90;74.80
48162;DHT22;33950;48.154;16.316;2023-06-04T09:36:34;21.90;74.70
48162;DHT22;33950;48.154;16.316;2023-06-04T09:39:21;22.00;74.90
48162;DHT22;33950;48.154;16.316;2023-06-04T09:42:07;22.10;75.20
48162;DHT22;33950;48.154;16.316;2023-06-04T09:44:53;22.00;74.60
48162;DHT22;33950;48.154;16.316;2023-06-04T09:47:40;22.10;74.90
48162;DHT22;33950;48.154;16.316;2023-06-04T09:50:33;22.20;75.10
48162;DHT22;33950;48.154;16.316;2023-06-04T09:53:20;22.30;74.80
48162;DHT22;33950;48.154;16.316;2023-06-04T09:56:09;22.40;75.10
48162;DHT22;33950;48.154;16.316;2023-06-04T09:58:58;22.40;74.30
48162;DHT22;33950;48.154;16.316;2023-06-04T10:01:48;22.30;74.20
48162;DHT22;33950;48.154;16.316;2023-06-04T10:04:35;22.20;74.90
48162;DHT22;33950;48.154;16.316;2023-06-04T10:07:24;22.10;75.70
48162;DHT22;33950;48.154;16.316;2023-06-04T10:10:13;22.00;75.70
48162;DHT22;33950;48.154;16.316;2023-06-04T10:13:04;22.10;74.70
48162;DHT22;33950;48.154;16.316;2023-06-04T10:15:51;22.00;75.20
48162;DHT22;33950;48.154;16.316;2023-06-04T10:18:37;22.10;74.60
48162;DHT22;33950;48.154;16.316;2023-06-04T10:21:23;22.20;75.40
48162;DHT22;33950;48.154;16.316;2023-06-04T10:24:12;22.30;75.40
48162;DHT22;33950;48.154;16.316;2023-06-04T10:26:58;22.30;75.00
48162;DHT22;33950;48.154;16.316;2023-06-04T10:29:45;22.50;75.40
48162;DHT22;33950;48.154;16.316;2023-06-04T10:32:32;22.50;74.20
48162;DHT22;33950;48.154;16.316;2023-06-04T10:35:29;22.50;73.80
48162;DHT22;33950;48.154;16.316;2023-06-04T10:38:15;22.60;73.10
48162;DHT22;33950;48.154;16.316;2023-06-04T10:41:13;22.60;72.80
48162;DHT22;33950;48.154;16.316;2023-06-04T10:44:01;22.80;73.20
48162;DHT22;33950;48.154;16.316;2023-06-04T10:46:47;23.10;73.40
48162;DHT22;33950;48.154;16.316;2023-06-04T10:49:34;23.40;72.00
48162;DHT22;33950;48.154;16.316;2023-06-04T10:52:21;23.60;72.50
48162;DHT22;33950;48.154;16.316;2023-06-04T10:55:08;23.70;72.10
48162;DHT22;33950;48.154;16.316;2023-06-04T10:57:57;23.90;71.40
48162;DHT22;33950;48.154;16.316;2023-06-04T11:00:44;23.90;70.80
48162;DHT22;33950;48.154;16.316;2023-06-04T11:03:35;24.00;71.60
48162;DHT22;33950;48.154;16.316;2023-06-04T11:06:22;24.30;71.50
48162;DHT22;33950;48.154;16.316;2023-06-04T11:09:13;24.50;71.10
48162;DHT22;33950;48.154;16.316;2023-06-04T11:12:03;24.80;70.40
48162;DHT22;33950;48.154;16.316;2023-06-04T11:14:57;25.10;70.10
48162;DHT22;33950;48.154;16.316;2023-06-04T11:17:51;25.20;69.10
48162;DHT22;33950;48.154;16.316;2023-06-04T11:20:38;25.30;68.80
48162;DHT22;33950;48.154;16.316;2023-06-04T11:23:24;25.10;68.40
48162;DHT22;33950;48.154;16.316;2023-06-04T11:26:10;24.80;68.80
48162;DHT22;33950;48.154;16.316;2023-06-04T11:28:56;24.40;68.50
48162;DHT22;33950;48.154;16.316;2023-06-04T11:31:45;24.20;69.20
48162;DHT22;33950;48.154;16.316;2023-06-04T11:34:32;24.10;70.00
48162;DHT22;33950;48.154;16.316;2023-06-04T11:37:18;24.10;70.00
48162;DHT22;33950;48.154;16.316;2023-06-04T11:40:15;24.10;70.10
48162;DHT22;33950;48.154;16.316;2023-06-04T11:43:02;24.20;69.90
48162;DHT22;33950;48.154;16.316;2023-06-04T11:45:48;24.60;70.20
48162;DHT22;33950;48.154;16.316;2023-06-04T11:48:37;24.90;69.40
48162;DHT22;33950;48.154;16.316;2023-06-04T11:51:23;25.40;68.00
48162;DHT22;33950;48.154;16.316;2023-06-04T11:54:09;25.80;68.50
48162;DHT22;33950;48.154;16.316;2023-06-04T11:56:55;26.40;68.90
48162;DHT22;33950;48.154;16.316;2023-06-04T11:59:42;26.80;68.50
48162;DHT22;33950;48.154;16.316;2023-06-04T12:02:28;26.90;67.30
48162;DHT22;33950;48.154;16.316;2023-06-04T12:05:16;26.90;67.30
48162;DHT22;33950;48.154;16.316;2023-06-04T12:08:06;27.10;66.50
48162;DHT22;33950;48.154;16.316;2023-06-04T12:10:55;27.20;65.90
48162;DHT22;33950;48.154;16.316;2023-06-04T12:13:41;27.20;66.20
48162;DHT22;33950;48.154;16.316;2023-06-04T12:16:27;26.80;66.30
48162;DHT22;33950;48.154;16.316;2023-06-04T12:19:13;26.10;66.00
48162;DHT22;33950;48.154;16.316;2023-06-04T12:22:02;25.80;66.90
48162;DHT22;33950;48.154;16.316;2023-06-04T12:24:49;25.70;67.40
48162;DHT22;33950;48.154;16.316;2023-06-04T12:27:46;25.60;66.90
48162;DHT22;33950;48.154;16.316;2023-06-04T12:30:37;25.60;66.80
48162;DHT22;33950;48.154;16.316;2023-06-04T12:33:23;25.60;68.00
48162;DHT22;33950;48.154;16.316;2023-06-04T12:36:09;25.60;67.60
48162;DHT22;33950;48.154;16.316;2023-06-04T12:38:59;25.60;68.00
48162;DHT22;33950;48.154;16.316;2023-06-04T12:41:46;25.40;67.50
48162;DHT22;33950;48.154;16.316;2023-06-04T12:44:35;25.00;68.30
48162;DHT22;33950;48.154;16.316;2023-06-04T12:47:21;25.00;68.80
48162;DHT22;33950;48.154;16.316;2023-06-04T12:50:08;24.80;68.90
48162;DHT22;33950;48.154;16.316;2023-06-04T12:52:54;24.80;68.50
48162;DHT22;33950;48.154;16.316;2023-06-04T12:55:42;24.80;68.80
48162;DHT22;33950;48.154;16.316;2023-06-04T12:58:28;24.70;68.40
48162;DHT22;33950;48.154;16.316;2023-06-04T13:01:15;24.40;68.60
48162;DHT22;33950;48.154;16.316;2023-06-04T13:04:01;24.40;69.40
48162;DHT22;33950;48.154;16.316;2023-06-04T13:06:47;24.40;70.00
48162;DHT22;33950;48.154;16.316;2023-06-04T13:09:33;24.20;69.30
48162;DHT22;33950;48.154;16.316;2023-06-04T13:12:22;24.30;69.90
48162;DHT22;33950;48.154;16.316;2023-06-04T13:15:09;24.30;70.40
48162;DHT22;33950;48.154;16.316;2023-06-04T13:17:55;24.30;69.90
48162;DHT22;33950;48.154;16.316;2023-06-04T13:20:42;24.30;70.90
48162;DHT22;33950;48.154;16.316;2023-06-04T13:23:28;24.20;70.90
48162;DHT22;33950;48.154;16.316;2023-06-04T13:26:14;24.20;70.50
48162;DHT22;33950;48.154;16.316;2023-06-04T13:29:02;24.20;70.60
48162;DHT22;33950;48.154;16.316;2023-06-04T13:31:48;24.30;71.30
48162;DHT22;33950;48.154;16.316;2023-06-04T13:34:34;24.30;70.30
48162;DHT22;33950;48.154;16.316;2023-06-04T13:37:20;24.40;71.10
48162;DHT22;33950;48.154;16.316;2023-06-04T13:40:08;24.40;70.50
48162;DHT22;33950;48.154;16.316;2023-06-04T13:42:54;24.40;70.50
48162;DHT22;33950;48.154;16.316;2023-06-04T13:45:42;24.40;71.30
48162;DHT22;33950;48.154;16.316;2023-06-04T13:48:30;24.60;70.50
48162;DHT22;33950;48.154;16.316;2023-06-04T13:51:16;24.50;70.00
48162;DHT22;33950;48.154;16.316;2023-06-04T13:54:02;24.40;70.30
48162;DHT22;33950;48.154;16.316;2023-06-04T13:56:48;24.30;70.40
48162;DHT22;33950;48.154;16.316;2023-06-04T13:59:35;24.30;71.00
48162;DHT22;33950;48.154;16.316;2023-06-04T14:02:22;24.30;71.40
48162;DHT22;33950;48.154;16.316;2023-06-04T14:05:09;24.40;72.00
48162;DHT22;33950;48.154;16.316;2023-06-04T14:07:55;24.60;72.10
48162;DHT22;33950;48.154;16.316;2023-06-04T14:10:41;24.80;71.10
48162;DHT22;33950;48.154;16.316;2023-06-04T14:13:27;24.70;71.10
48162;DHT22;33950;48.154;16.316;2023-06-04T14:16:14;24.70;70.40
48162;DHT22;33950;48.154;16.316;2023-06-04T14:19:01;24.90;71.20
48162;DHT22;33950;48.154;16.316;2023-06-04T14:21:47;25.10;69.90
48162;DHT22;33950;48.154;16.316;2023-06-04T14:24:34;25.10;70.60
48162;DHT22;33950;48.154;16.316;2023-06-04T14:27:20;25.00;69.90
48162;DHT22;33950;48.154;16.316;2023-06-04T14:30:09;24.70;69.30
48162;DHT22;33950;48.154;16.316;2023-06-04T14:32:57;24.30;70.80
48162;DHT22;33950;48.154;16.316;2023-06-04T14:35:44;24.20;70.20
48162;DHT22;33950;48.154;16.316;2023-06-04T14:38:32;24.00;70.20
48162;DHT22;33950;48.154;16.316;2023-06-04T14:41:18;23.90;70.00
48162;DHT22;33950;48.154;16.316;2023-06-04T14:44:04;23.90;70.60
48162;DHT22;33950;48.154;16.316;2023-06-04T14:46:51;23.70;70.90
48162;DHT22;33950;48.154;16.316;2023-06-04T14:49:37;23.80;71.00
48162;DHT22;33950;48.154;16.316;2023-06-04T14:52:25;23.50;71.50
48162;DHT22;33950;48.154;16.316;2023-06-04T14:55:11;23.40;72.30
48162;DHT22;33950;48.154;16.316;2023-06-04T14:57:57;23.70;71.80
48162;DHT22;33950;48.154;16.316;2023-06-04T15:00:43;23.90;71.90
48162;DHT22;33950;48.154;16.316;2023-06-04T15:03:29;23.90;70.80
48162;DHT22;33950;48.154;16.316;2023-06-04T15:06:16;23.90;71.30
48162;DHT22;33950;48.154;16.316;2023-06-04T15:09:03;23.80;71.10
48162;DHT22;33950;48.154;16.316;2023-06-04T15:11:49;23.60;72.00
48162;DHT22;33950;48.154;16.316;2023-06-04T15:14:35;23.50;71.60
48162;DHT22;33950;48.154;16.316;2023-06-04T15:17:22;23.60;71.90
48162;DHT22;33950;48.154;16.316;2023-06-04T15:20:09;23.30;72.90
48162;DHT22;33950;48.154;16.316;2023-06-04T15:22:55;23.10;73.20
48162;DHT22;33950;48.154;16.316;2023-06-04T15:25:43;23.10;73.30
48162;DHT22;33950;48.154;16.316;2023-06-04T15:28:29;23.20;73.20
48162;DHT22;33950;48.154;16.316;2023-06-04T15:31:15;23.20;73.40
48162;DHT22;33950;48.154;16.316;2023-06-04T15:34:01;23.00;73.00
48162;DHT22;33950;48.154;16.316;2023-06-04T15:36:47;22.80;73.90
48162;DHT22;33950;48.154;16.316;2023-06-04T15:39:34;22.90;73.60
48162;DHT22;33950;48.154;16.316;2023-06-04T15:42:21;22.90;73.30
48162;DHT22;33950;48.154;16.316;2023-06-04T15:45:08;22.90;73.60
48162;DHT22;33950;48.154;16.316;2023-06-04T15:47:55;22.70;73.50
48162;DHT22;33950;48.154;16.316;2023-06-04T15:50:41;22.80;73.40
48162;DHT22;33950;48.154;16.316;2023-06-04T15:53:27;22.80;73.90
48162;DHT22;33950;48.154;16.316;2023-06-04T15:56:13;22.80;74.10
48162;DHT22;33950;48.154;16.316;2023-06-04T15:59:03;22.80;74.40
48162;DHT22;33950;48.154;16.316;2023-06-04T16:01:50;22.70;74.00
48162;DHT22;33950;48.154;16.316;2023-06-04T16:04:36;22.60;74.70
48162;DHT22;33950;48.154;16.316;2023-06-04T16:07:23;22.30;75.80
48162;DHT22;33950;48.154;16.316;2023-06-04T16:10:09;22.20;75.70
48162;DHT22;33950;48.154;16.316;2023-06-04T16:12:55;22.20;76.60
48162;DHT22;33950;48.154;16.316;2023-06-04T16:15:43;22.00;76.50
48162;DHT22;33950;48.154;16.316;2023-06-04T16:18:29;22.10;76.20
48162;DHT22;33950;48.154;16.316;2023-06-04T16:21:15;22.00;77.10
48162;DHT22;33950;48.154;16.316;2023-06-04T16:24:01;21.90;77.20
48162;DHT22;33950;48.154;16.316;2023-06-04T16:26:48;21.90;77.50
48162;DHT22;33950;48.154;16.316;2023-06-04T16:29:34;22.00;78.10
48162;DHT22;33950;48.154;16.316;2023-06-04T16:32:21;21.90;79.00
48162;DHT22;33950;48.154;16.316;2023-06-04T16:35:08;21.70;79.30
48162;DHT22;33950;48.154;16.316;2023-06-04T16:37:55;21.70;79.80
48162;DHT22;33950;48.154;16.316;2023-06-04T16:40:41;21.80;79.50
48162;DHT22;33950;48.154;16.316;2023-06-04T16:43:27;21.80;79.70
48162;DHT22;33950;48.154;16.316;2023-06-04T16:46:14;21.80;79.40
48162;DHT22;33950;48.154;16.316;2023-06-04T16:49:03;21.80;79.40
48162;DHT22;33950;48.154;16.316;2023-06-04T16:51:49;22.00;79.50
48162;DHT22;33950;48.154;16.316;2023-06-04T16:54:35;22.00;79.70
48162;DHT22;33950;48.154;16.316;2023-06-04T16:57:22;22.00;79.50
48162;DHT22;33950;48.154;16.316;2023-06-04T17:00:08;22.10;79.30
48162;DHT22;33950;48.154;16.316;2023-06-04T17:02:55;22.10;79.90
48162;DHT22;33950;48.154;16.316;2023-06-04T17:05:45;22.00;79.50
48162;DHT22;33950;48.154;16.316;2023-06-04T17:08:32;22.00;80.30
48162;DHT22;33950;48.154;16.316;2023-06-04T17:11:18;21.90;80.10
48162;DHT22;33950;48.154;16.316;2023-06-04T17:14:04;21.90;79.70
48162;DHT22;33950;48.154;16.316;2023-06-04T17:16:50;22.00;79.90
48162;DHT22;33950;48.154;16.316;2023-06-04T17:19:36;21.80;80.30
48162;DHT22;33950;48.154;16.316;2023-06-04T17:22:24;21.60;80.40
48162;DHT22;33950;48.154;16.316;2023-06-04T17:25:10;21.70;80.70
48162;DHT22;33950;48.154;16.316;2023-06-04T17:27:56;21.60;80.60
48162;DHT22;33950;48.154;16.316;2023-06-04T17:30:42;21.50;80.80
48162;DHT22;33950;48.154;16.316;2023-06-04T17:33:28;21.40;81.50
48162;DHT22;33950;48.154;16.316;2023-06-04T17:36:15;21.20;81.30
48162;DHT22;33950;48.154;16.316;2023-06-04T17:39:02;21.20;81.40
48162;DHT22;33950;48.154;16.316;2023-06-04T17:41:48;21.30;81.10
48162;DHT22;33950;48.154;16.316;2023-06-04T17:44:35;21.10;81.40
48162;DHT22;33950;48.154;16.316;2023-06-04T17:47:21;21.10;81.80